sensor_id;sensor_type;location;lat;lon;timestamp;pressure;altitude;pressure_sealevel;temperature;humidity
60715;BME280;46564;53.096;8.246;2022-10-16T00:00:42;100743.53;;;11.61;92.78
60715;BME280;46564;53.096;8.246;2022-10-16T00:05:44;100745.28;;;11.59;92.56
60715;BME280;46564;53.096;8.246;2022-10-16T00:10:45;100746.84;;;11.46;92.49
60715;BME280;46564;53.096;8.246;2022-10-16T00:15:47;100749.44;;;11.43;92.48
60715;BME280;46564;53.096;8.246;2022-10-16T00:20:49;100751.16;;;11.41;92.52
60715;BME280;46564;53.096;8.246;2022-10-16T00:25:59;100754.63;;;11.40;92.49
60715;BME280;46564;53.096;8.246;2022-10-16T00:31:06;100752.72;;;11.27;92.36
60715;BME280;46564;53.096;8.246;2022-10-16T00:36:12;100763.19;;;11.27;92.47
60715;BME280;46564;53.096;8.246;2022-10-16T00:41:16;100769.34;;;11.27;92.45
60715;BME280;46564;53.096;8.246;2022-10-16T00:46:37;100757.91;;;11.24;92.46
60715;BME280;46564;53.096;8.246;2022-10-16T00:51:43;100767.50;;;11.20;92.42
60715;BME280;46564;53.096;8.246;2022-10-16T00:56:46;100770.03;;;11.16;92.31
60715;BME280;46564;53.096;8.246;2022-10-16T01:01:48;100764.66;;;11.08;92.30
60715;BME280;46564;53.096;8.246;2022-10-16T01:12:24;100754.94;;;10.98;92.63
60715;BME280;46564;53.096;8.246;2022-10-16T01:17:48;100739.13;;;10.91;92.63
60715;BME280;46564;53.096;8.246;2022-10-16T01:23:07;100752.22;;;10.91;92.82
60715;BME280;46564;53.096;8.246;2022-10-16T01:28:12;100757.38;;;10.88;92.89
60715;BME280;46564;53.096;8.246;2022-10-16T01:33:20;100762.59;;;10.87;92.95
60715;BME280;46564;53.096;8.246;2022-10-16T01:38:26;100758.34;;;10.92;92.93
60715;BME280;46564;53.096;8.246;2022-10-16T01:43:35;100742.63;;;10.92;93.01
60715;BME280;46564;53.096;8.246;2022-10-16T01:48:39;100759.28;;;10.97;92.98
60715;BME280;46564;53.096;8.246;2022-10-16T01:53:43;100768.06;;;10.99;93.00
60715;BME280;46564;53.096;8.246;2022-10-16T01:59:11;100761.13;;;11.04;93.03
60715;BME280;46564;53.096;8.246;2022-10-16T02:09:18;100771.81;;;11.20;92.68
60715;BME280;46564;53.096;8.246;2022-10-16T02:14:20;100771.91;;;11.26;92.44
60715;BME280;46564;53.096;8.246;2022-10-16T02:19:23;100766.72;;;11.27;92.50
60715;BME280;46564;53.096;8.246;2022-10-16T02:24:57;100766.81;;;11.35;92.21
60715;BME280;46564;53.096;8.246;2022-10-16T02:30:08;100758.22;;;11.45;91.79
60715;BME280;46564;53.096;8.246;2022-10-16T02:35:17;100761.78;;;11.50;91.54
60715;BME280;46564;53.096;8.246;2022-10-16T02:40:19;100762.63;;;11.49;91.33
60715;BME280;46564;53.096;8.246;2022-10-16T02:45:25;100766.97;;;11.47;91.12
60715;BME280;46564;53.096;8.246;2022-10-16T02:50:27;100756.44;;;11.44;90.83
60715;BME280;46564;53.096;8.246;2022-10-16T02:55:29;100751.09;;;11.35;90.79
60715;BME280;46564;53.096;8.246;2022-10-16T03:00:30;100758.03;;;11.33;90.89
60715;BME280;46564;53.096;8.246;2022-10-16T03:05:32;100768.53;;;11.33;90.96
60715;BME280;46564;53.096;8.246;2022-10-16T03:10:34;100775.50;;;11.31;90.94
60715;BME280;46564;53.096;8.246;2022-10-16T03:15:36;100770.22;;;11.29;90.90
60715;BME280;46564;53.096;8.246;2022-10-16T03:20:38;100764.97;;;11.28;90.87
60715;BME280;46564;53.096;8.246;2022-10-16T03:25:39;100778.00;;;11.23;90.90
60715;BME280;46564;53.096;8.246;2022-10-16T03:30:43;100787.59;;;11.23;91.05
60715;BME280;46564;53.096;8.246;2022-10-16T03:35:51;100791.13;;;11.25;91.12
60715;BME280;46564;53.096;8.246;2022-10-16T03:40:54;100768.44;;;11.27;91.33
60715;BME280;46564;53.096;8.246;2022-10-16T03:45:56;100758.03;;;11.33;91.51
60715;BME280;46564;53.096;8.246;2022-10-16T03:50:58;100785.19;;;11.37;91.65
60715;BME280;46564;53.096;8.246;2022-10-16T03:55:59;100787.91;;;11.44;91.74
60715;BME280;46564;53.096;8.246;2022-10-16T04:01:01;100790.53;;;11.44;91.79
60715;BME280;46564;53.096;8.246;2022-10-16T04:06:04;100802.84;;;11.50;91.98
60715;BME280;46564;53.096;8.246;2022-10-16T04:11:05;100815.16;;;11.56;91.88
60715;BME280;46564;53.096;8.246;2022-10-16T04:16:07;100819.56;;;11.60;92.17
60715;BME280;46564;53.096;8.246;2022-10-16T04:21:08;100806.41;;;11.55;92.27
60715;BME280;46564;53.096;8.246;2022-10-16T04:26:10;100798.63;;;11.63;92.44
60715;BME280;46564;53.096;8.246;2022-10-16T04:31:12;100801.25;;;11.61;92.57
60715;BME280;46564;53.096;8.246;2022-10-16T04:36:13;100813.50;;;11.62;92.61
60715;BME280;46564;53.096;8.246;2022-10-16T04:41:15;100797.81;;;11.67;92.78
60715;BME280;46564;53.096;8.246;2022-10-16T04:46:17;100802.09;;;11.62;92.81
60715;BME280;46564;53.096;8.246;2022-10-16T04:51:18;100809.06;;;11.57;92.93
60715;BME280;46564;53.096;8.246;2022-10-16T04:56:20;100831.81;;;11.59;93.16
60715;BME280;46564;53.096;8.246;2022-10-16T05:01:23;100844.94;;;11.59;93.28
60715;BME280;46564;53.096;8.246;2022-10-16T05:06:25;100847.50;;;11.55;93.39
60715;BME280;46564;53.096;8.246;2022-10-16T05:11:27;100840.59;;;11.63;93.51
60715;BME280;46564;53.096;8.246;2022-10-16T05:16:29;100850.25;;;11.65;93.46
60715;BME280;46564;53.096;8.246;2022-10-16T05:21:32;100856.41;;;11.69;93.79
60715;BME280;46564;53.096;8.246;2022-10-16T05:26:33;100849.44;;;11.68;93.75
60715;BME280;46564;53.096;8.246;2022-10-16T05:31:35;100847.69;;;11.70;93.82
60715;BME280;46564;53.096;8.246;2022-10-16T05:36:38;100840.69;;;11.69;93.85
60715;BME280;46564;53.096;8.246;2022-10-16T05:41:40;100850.38;;;11.75;94.06
60715;BME280;46564;53.096;8.246;2022-10-16T05:46:42;100855.66;;;11.78;94.02
60715;BME280;46564;53.096;8.246;2022-10-16T05:51:44;100858.19;;;11.70;93.94
60715;BME280;46564;53.096;8.246;2022-10-16T05:56:46;100874.72;;;11.66;94.11
60715;BME280;46564;53.096;8.246;2022-10-16T06:01:48;100894.88;;;11.67;94.21
60715;BME280;46564;53.096;8.246;2022-10-16T06:06:49;100900.06;;;11.64;94.27
60715;BME280;46564;53.096;8.246;2022-10-16T06:11:51;100899.25;;;11.68;94.26
60715;BME280;46564;53.096;8.246;2022-10-16T06:16:53;100904.41;;;11.62;94.35
60715;BME280;46564;53.096;8.246;2022-10-16T06:21:54;100915.72;;;11.58;94.33
60715;BME280;46564;53.096;8.246;2022-10-16T06:26:56;100902.66;;;11.62;94.50
60715;BME280;46564;53.096;8.246;2022-10-16T06:31:58;100907.84;;;11.58;94.50
60715;BME280;46564;53.096;8.246;2022-10-16T06:36:59;100917.47;;;11.59;94.54
60715;BME280;46564;53.096;8.246;2022-10-16T06:42:01;100928.09;;;11.66;94.99
60715;BME280;46564;53.096;8.246;2022-10-16T06:47:09;100936.06;;;11.73;94.78
60715;BME280;46564;53.096;8.246;2022-10-16T06:52:11;100943.13;;;11.80;94.55
60715;BME280;46564;53.096;8.246;2022-10-16T06:57:13;100949.38;;;11.87;94.58
60715;BME280;46564;53.096;8.246;2022-10-16T07:02:14;100955.50;;;11.89;94.42
60715;BME280;46564;53.096;8.246;2022-10-16T07:07:16;100952.00;;;11.88;94.64
60715;BME280;46564;53.096;8.246;2022-10-16T07:12:18;100974.03;;;11.98;94.30
60715;BME280;46564;53.096;8.246;2022-10-16T07:17:20;100973.34;;;12.11;94.23
60715;BME280;46564;53.096;8.246;2022-10-16T07:22:22;100975.31;;;12.28;94.09
60715;BME280;46564;53.096;8.246;2022-10-16T07:27:24;100988.72;;;12.48;93.85
60715;BME280;46564;53.096;8.246;2022-10-16T07:32:26;100995.00;;;12.62;93.34
60715;BME280;46564;53.096;8.246;2022-10-16T07:37:28;101000.72;;;13.04;92.97
60715;BME280;46564;53.096;8.246;2022-10-16T07:42:30;101012.22;;;13.11;92.08
60715;BME280;46564;53.096;8.246;2022-10-16T07:47:32;101019.56;;;13.44;91.50
60715;BME280;46564;53.096;8.246;2022-10-16T07:52:34;101029.78;;;14.21;90.39
60715;BME280;46564;53.096;8.246;2022-10-16T07:57:35;101037.25;;;16.38;87.66
60715;BME280;46564;53.096;8.246;2022-10-16T08:02:37;101046.81;;;16.71;83.34
60715;BME280;46564;53.096;8.246;2022-10-16T08:07:39;101051.38;;;16.00;81.72
60715;BME280;46564;53.096;8.246;2022-10-16T08:12:40;101064.53;;;15.27;81.24
60715;BME280;46564;53.096;8.246;2022-10-16T08:17:42;101072.28;;;14.81;81.70
60715;BME280;46564;53.096;8.246;2022-10-16T08:22:44;101076.47;;;14.46;82.73
60715;BME280;46564;53.096;8.246;2022-10-16T08:27:45;101079.13;;;14.54;83.15
60715;BME280;46564;53.096;8.246;2022-10-16T08:32:47;101069.41;;;14.39;83.37
60715;BME280;46564;53.096;8.246;2022-10-16T08:37:49;101080.34;;;15.33;83.23
60715;BME280;46564;53.096;8.246;2022-10-16T08:43:23;101068.09;;;15.97;81.80
60715;BME280;46564;53.096;8.246;2022-10-16T08:48:45;101084.84;;;15.95;80.44
60715;BME280;46564;53.096;8.246;2022-10-16T08:53:57;101090.97;;;15.77;79.92
60715;BME280;46564;53.096;8.246;2022-10-16T08:59:00;101106.69;;;15.18;80.12
60715;BME280;46564;53.096;8.246;2022-10-16T09:25:16;101133.22;;;15.63;81.63
60715;BME280;46564;53.096;8.246;2022-10-16T09:30:21;101133.25;;;15.89;80.35
60715;BME280;46564;53.096;8.246;2022-10-16T09:35:31;101154.38;;;16.38;79.64
60715;BME280;46564;53.096;8.246;2022-10-16T09:40:38;101151.75;;;16.37;78.23
60715;BME280;46564;53.096;8.246;2022-10-16T09:45:43;101149.03;;;16.69;78.04
60715;BME280;46564;53.096;8.246;2022-10-16T09:50:55;101171.03;;;16.91;76.89
60715;BME280;46564;53.096;8.246;2022-10-16T09:55:57;101175.41;;;17.09;76.12
60715;BME280;46564;53.096;8.246;2022-10-16T10:00:59;101183.31;;;17.16;75.72
60715;BME280;46564;53.096;8.246;2022-10-16T10:06:14;101193.78;;;17.45;75.35
60715;BME280;46564;53.096;8.246;2022-10-16T10:11:18;101194.84;;;16.93;74.87
60715;BME280;46564;53.096;8.246;2022-10-16T10:16:26;101193.97;;;16.86;74.83
60715;BME280;46564;53.096;8.246;2022-10-16T10:21:27;101203.72;;;16.55;74.18
60715;BME280;46564;53.096;8.246;2022-10-16T10:26:30;101192.25;;;16.34;74.62
60715;BME280;46564;53.096;8.246;2022-10-16T10:32:05;101209.00;;;16.53;74.25
60715;BME280;46564;53.096;8.246;2022-10-16T10:37:31;101216.91;;;16.92;73.07
60715;BME280;46564;53.096;8.246;2022-10-16T10:43:06;101219.38;;;17.38;72.45
60715;BME280;46564;53.096;8.246;2022-10-16T11:04:19;101250.81;;;18.11;69.48
60715;BME280;46564;53.096;8.246;2022-10-16T11:09:34;101246.34;;;18.16;68.59
60715;BME280;46564;53.096;8.246;2022-10-16T11:14:48;101241.91;;;18.23;67.65
60715;BME280;46564;53.096;8.246;2022-10-16T11:25:26;101261.56;;;17.78;66.76
60715;BME280;46564;53.096;8.246;2022-10-16T11:30:30;101267.72;;;17.85;65.92
60715;BME280;46564;53.096;8.246;2022-10-16T11:35:39;101283.53;;;18.07;66.14
60715;BME280;46564;53.096;8.246;2022-10-16T11:40:47;101285.19;;;18.23;65.66
60715;BME280;46564;53.096;8.246;2022-10-16T11:45:53;101293.88;;;18.45;65.33
60715;BME280;46564;53.096;8.246;2022-10-16T11:51:00;101296.81;;;18.02;64.94
60715;BME280;46564;53.096;8.246;2022-10-16T11:56:06;101294.88;;;18.29;64.99
60715;BME280;46564;53.096;8.246;2022-10-16T12:11:40;101325.31;;;17.17;63.59
60715;BME280;46564;53.096;8.246;2022-10-16T12:16:57;101335.88;;;16.83;63.54
60715;BME280;46564;53.096;8.246;2022-10-16T12:22:02;101337.66;;;16.59;64.05
60715;BME280;46564;53.096;8.246;2022-10-16T12:27:17;101349.13;;;17.20;63.71
60715;BME280;46564;53.096;8.246;2022-10-16T12:32:35;101350.78;;;17.61;62.56
60715;BME280;46564;53.096;8.246;2022-10-16T12:37:53;101359.53;;;17.83;61.96
60715;BME280;46564;53.096;8.246;2022-10-16T12:42:55;101365.72;;;17.96;61.09
60715;BME280;46564;53.096;8.246;2022-10-16T12:47:57;101368.38;;;17.85;60.61
60715;BME280;46564;53.096;8.246;2022-10-16T12:53:01;101375.44;;;17.94;60.86
60715;BME280;46564;53.096;8.246;2022-10-16T12:58:31;101376.22;;;18.14;60.24
60715;BME280;46564;53.096;8.246;2022-10-16T13:25:21;101408.00;;;18.17;59.88
60715;BME280;46564;53.096;8.246;2022-10-16T13:30:26;101411.72;;;17.48;59.50
60715;BME280;46564;53.096;8.246;2022-10-16T13:35:34;101416.16;;;16.91;60.47
60715;BME280;46564;53.096;8.246;2022-10-16T13:40:36;101420.50;;;16.70;61.69
60715;BME280;46564;53.096;8.246;2022-10-16T13:45:38;101423.16;;;16.84;62.32
60715;BME280;46564;53.096;8.246;2022-10-16T13:50:40;101437.31;;;16.91;62.85
60715;BME280;46564;53.096;8.246;2022-10-16T13:55:42;101440.78;;;16.79;63.28
60715;BME280;46564;53.096;8.246;2022-10-16T14:00:54;101442.63;;;16.94;63.48
60715;BME280;46564;53.096;8.246;2022-10-16T14:06:00;101453.19;;;16.97;64.03
60715;BME280;46564;53.096;8.246;2022-10-16T14:11:02;101461.09;;;16.85;64.17
60715;BME280;46564;53.096;8.246;2022-10-16T14:16:07;101463.72;;;16.78;64.17
60715;BME280;46564;53.096;8.246;2022-10-16T14:21:15;101468.06;;;16.58;64.19
60715;BME280;46564;53.096;8.246;2022-10-16T14:26:20;101469.78;;;16.53;64.49
60715;BME280;46564;53.096;8.246;2022-10-16T14:31:26;101482.13;;;16.48;63.97
60715;BME280;46564;53.096;8.246;2022-10-16T14:36:29;101474.19;;;16.44;63.57
60715;BME280;46564;53.096;8.246;2022-10-16T14:41:33;101469.78;;;16.43;64.06
60715;BME280;46564;53.096;8.246;2022-10-16T14:46:42;101479.47;;;16.46;63.59
60715;BME280;46564;53.096;8.246;2022-10-16T14:51:46;101490.84;;;16.28;63.82
60715;BME280;46564;53.096;8.246;2022-10-16T14:56:51;101488.19;;;16.19;64.75
60715;BME280;46564;53.096;8.246;2022-10-16T15:01:53;101494.31;;;16.15;65.12
60715;BME280;46564;53.096;8.246;2022-10-16T15:06:54;101510.16;;;16.12;65.35
60715;BME280;46564;53.096;8.246;2022-10-16T15:11:56;101518.06;;;16.08;65.75
60715;BME280;46564;53.096;8.246;2022-10-16T15:16:58;101526.84;;;16.06;66.35
60715;BME280;46564;53.096;8.246;2022-10-16T15:22:00;101519.69;;;15.89;66.96
60715;BME280;46564;53.096;8.246;2022-10-16T15:27:02;101522.22;;;15.77;67.63
60715;BME280;46564;53.096;8.246;2022-10-16T15:32:04;101535.31;;;15.62;68.37
60715;BME280;46564;53.096;8.246;2022-10-16T15:37:05;101524.69;;;15.52;68.87
60715;BME280;46564;53.096;8.246;2022-10-16T15:42:07;101528.06;;;15.36;69.04
60715;BME280;46564;53.096;8.246;2022-10-16T15:47:09;101513.88;;;15.26;69.17
60715;BME280;46564;53.096;8.246;2022-10-16T15:52:11;101520.81;;;15.13;69.58
60715;BME280;46564;53.096;8.246;2022-10-16T15:57:12;101522.38;;;14.97;70.15
60715;BME280;46564;53.096;8.246;2022-10-16T16:02:14;101527.50;;;14.82;70.48
60715;BME280;46564;53.096;8.246;2022-10-16T16:07:16;101541.34;;;14.64;71.17
60715;BME280;46564;53.096;8.246;2022-10-16T16:12:17;101542.88;;;14.49;71.91
60715;BME280;46564;53.096;8.246;2022-10-16T16:17:19;101550.53;;;14.29;72.68
60715;BME280;46564;53.096;8.246;2022-10-16T16:22:20;101558.09;;;14.08;73.84
60715;BME280;46564;53.096;8.246;2022-10-16T16:27:22;101560.34;;;13.82;74.64
60715;BME280;46564;53.096;8.246;2022-10-16T16:32:26;101569.56;;;13.56;76.08
60715;BME280;46564;53.096;8.246;2022-10-16T16:37:28;101570.94;;;13.36;76.83
60715;BME280;46564;53.096;8.246;2022-10-16T16:42:31;101580.19;;;13.15;77.83
60715;BME280;46564;53.096;8.246;2022-10-16T16:47:32;101585.94;;;12.94;78.69
60715;BME280;46564;53.096;8.246;2022-10-16T16:52:35;101598.63;;;12.74;79.47
60715;BME280;46564;53.096;8.246;2022-10-16T16:57:36;101607.00;;;12.56;80.24
60715;BME280;46564;53.096;8.246;2022-10-16T17:02:38;101610.06;;;12.36;80.63
60715;BME280;46564;53.096;8.246;2022-10-16T17:07:44;101611.47;;;12.20;81.31
60715;BME280;46564;53.096;8.246;2022-10-16T17:12:46;101616.38;;;12.07;81.94
60715;BME280;46564;53.096;8.246;2022-10-16T17:17:48;101629.28;;;11.97;82.41
60715;BME280;46564;53.096;8.246;2022-10-16T17:22:50;101629.81;;;11.85;82.94
60715;BME280;46564;53.096;8.246;2022-10-16T17:27:52;101638.19;;;11.71;83.59
60715;BME280;46564;53.096;8.246;2022-10-16T17:32:54;101641.44;;;11.62;83.98
60715;BME280;46564;53.096;8.246;2022-10-16T17:37:55;101658.69;;;11.52;84.51
60715;BME280;46564;53.096;8.246;2022-10-16T17:42:57;101658.44;;;11.43;84.89
60715;BME280;46564;53.096;8.246;2022-10-16T17:47:58;101672.19;;;11.34;85.18
60715;BME280;46564;53.096;8.246;2022-10-16T17:53:01;101662.13;;;11.18;85.61
60715;BME280;46564;53.096;8.246;2022-10-16T17:58:04;101672.38;;;11.10;85.98
60715;BME280;46564;53.096;8.246;2022-10-16T18:03:05;101685.44;;;11.08;86.30
60715;BME280;46564;53.096;8.246;2022-10-16T18:08:08;101678.31;;;11.04;86.61
60715;BME280;46564;53.096;8.246;2022-10-16T18:13:09;101686.06;;;11.00;86.81
60715;BME280;46564;53.096;8.246;2022-10-16T18:18:11;101687.56;;;10.91;87.17
60715;BME280;46564;53.096;8.246;2022-10-16T18:23:13;101699.50;;;10.82;86.97
60715;BME280;46564;53.096;8.246;2022-10-16T18:28:15;101703.72;;;10.76;87.56
60715;BME280;46564;53.096;8.246;2022-10-16T18:33:16;101703.50;;;10.70;87.61
60715;BME280;46564;53.096;8.246;2022-10-16T18:38:18;101705.72;;;10.58;87.83
60715;BME280;46564;53.096;8.246;2022-10-16T18:43:20;101721.19;;;10.50;88.08
60715;BME280;46564;53.096;8.246;2022-10-16T18:48:22;101716.66;;;10.44;88.54
60715;BME280;46564;53.096;8.246;2022-10-16T18:53:24;101711.31;;;10.41;88.71
60715;BME280;46564;53.096;8.246;2022-10-16T18:58:26;101723.47;;;10.39;88.86
60715;BME280;46564;53.096;8.246;2022-10-16T19:03:27;101727.84;;;10.39;89.15
60715;BME280;46564;53.096;8.246;2022-10-16T19:08:29;101728.72;;;10.39;89.33
60715;BME280;46564;53.096;8.246;2022-10-16T19:13:32;101717.28;;;10.36;89.26
60715;BME280;46564;53.096;8.246;2022-10-16T19:18:34;101714.44;;;10.31;89.47
60715;BME280;46564;53.096;8.246;2022-10-16T19:23:39;101726.69;;;10.32;89.46
60715;BME280;46564;53.096;8.246;2022-10-16T19:28:42;101720.53;;;10.30;89.75
60715;BME280;46564;53.096;8.246;2022-10-16T19:33:44;101717.81;;;10.27;90.04
60715;BME280;46564;53.096;8.246;2022-10-16T19:38:46;101733.53;;;10.27;90.01
60715;BME280;46564;53.096;8.246;2022-10-16T19:43:47;101731.53;;;10.20;90.35
60715;BME280;46564;53.096;8.246;2022-10-16T19:48:58;101734.78;;;10.13;90.29
60715;BME280;46564;53.096;8.246;2022-10-16T19:54:03;101719.00;;;10.11;90.45
60715;BME280;46564;53.096;8.246;2022-10-16T19:59:09;101729.53;;;10.13;90.32
60715;BME280;46564;53.096;8.246;2022-10-16T20:04:13;101744.47;;;10.15;90.63
60715;BME280;46564;53.096;8.246;2022-10-16T20:09:14;101742.78;;;10.17;90.64
60715;BME280;46564;53.096;8.246;2022-10-16T20:14:16;101760.22;;;10.17;90.75
60715;BME280;46564;53.096;8.246;2022-10-16T20:19:18;101754.94;;;10.15;90.76
60715;BME280;46564;53.096;8.246;2022-10-16T20:24:20;101752.41;;;10.18;90.76
60715;BME280;46564;53.096;8.246;2022-10-16T20:29:21;101766.44;;;10.20;90.84
60715;BME280;46564;53.096;8.246;2022-10-16T20:34:23;101753.41;;;10.22;91.04
60715;BME280;46564;53.096;8.246;2022-10-16T20:39:25;101768.28;;;10.23;91.31
60715;BME280;46564;53.096;8.246;2022-10-16T20:44:27;101772.47;;;10.18;91.38
60715;BME280;46564;53.096;8.246;2022-10-16T20:49:29;101781.22;;;10.18;91.45
60715;BME280;46564;53.096;8.246;2022-10-16T20:54:43;101766.38;;;10.19;91.53
60715;BME280;46564;53.096;8.246;2022-10-16T20:59:45;101784.84;;;10.23;91.56
60715;BME280;46564;53.096;8.246;2022-10-16T21:04:47;101777.97;;;10.25;91.58
60715;BME280;46564;53.096;8.246;2022-10-16T21:09:49;101781.63;;;10.31;91.85
60715;BME280;46564;53.096;8.246;2022-10-16T21:14:50;101798.19;;;10.31;91.88
60715;BME280;46564;53.096;8.246;2022-10-16T21:20:12;101802.75;;;10.35;91.96
60715;BME280;46564;53.096;8.246;2022-10-16T21:25:14;101792.28;;;10.35;91.82
60715;BME280;46564;53.096;8.246;2022-10-16T21:30:16;101781.97;;;10.40;91.92
60715;BME280;46564;53.096;8.246;2022-10-16T21:35:17;101769.88;;;10.43;91.99
60715;BME280;46564;53.096;8.246;2022-10-16T21:40:19;101776.94;;;10.46;91.88
60715;BME280;46564;53.096;8.246;2022-10-16T21:45:21;101781.47;;;10.52;92.00
60715;BME280;46564;53.096;8.246;2022-10-16T21:50:22;101768.50;;;10.55;91.93
60715;BME280;46564;53.096;8.246;2022-10-16T21:55:24;101759.13;;;10.61;91.92
60715;BME280;46564;53.096;8.246;2022-10-16T22:00:26;101749.63;;;10.65;92.01
60715;BME280;46564;53.096;8.246;2022-10-16T22:05:28;101746.25;;;10.69;91.89
60715;BME280;46564;53.096;8.246;2022-10-16T22:10:30;101739.38;;;10.73;92.10
60715;BME280;46564;53.096;8.246;2022-10-16T22:15:32;101731.56;;;10.74;91.87
60715;BME280;46564;53.096;8.246;2022-10-16T22:20:34;101737.81;;;10.78;92.08
60715;BME280;46564;53.096;8.246;2022-10-16T22:25:36;101733.44;;;10.78;92.31
60715;BME280;46564;53.096;8.246;2022-10-16T22:30:39;101725.63;;;10.80;92.47
60715;BME280;46564;53.096;8.246;2022-10-16T22:35:40;101730.00;;;10.79;92.46
60715;BME280;46564;53.096;8.246;2022-10-16T22:40:43;101722.19;;;10.81;92.79
60715;BME280;46564;53.096;8.246;2022-10-16T22:45:45;101729.22;;;10.84;92.80
60715;BME280;46564;53.096;8.246;2022-10-16T22:50:47;101716.94;;;10.81;93.00
60715;BME280;46564;53.096;8.246;2022-10-16T22:55:49;101699.50;;;10.82;92.87
60715;BME280;46564;53.096;8.246;2022-10-16T23:00:51;101722.28;;;10.84;93.01
60715;BME280;46564;53.096;8.246;2022-10-16T23:05:53;101718.69;;;10.82;93.07
60715;BME280;46564;53.096;8.246;2022-10-16T23:10:55;101713.56;;;10.85;93.41
60715;BME280;46564;53.096;8.246;2022-10-16T23:16:03;101704.03;;;10.87;93.27
60715;BME280;46564;53.096;8.246;2022-10-16T23:21:14;101690.13;;;10.90;93.31
60715;BME280;46564;53.096;8.246;2022-10-16T23:26:18;101673.66;;;10.94;93.50
60715;BME280;46564;53.096;8.246;2022-10-16T23:31:20;101663.25;;;10.97;93.47
60715;BME280;46564;53.096;8.246;2022-10-16T23:36:22;101666.84;;;10.99;93.55
60715;BME280;46564;53.096;8.246;2022-10-16T23:41:24;101680.03;;;11.02;93.43
60715;BME280;46564;53.096;8.246;2022-10-16T23:46:26;101675.69;;;11.04;93.61
60715;BME280;46564;53.096;8.246;2022-10-16T23:51:28;101674.81;;;11.04;93.39
60715;BME280;46564;53.096;8.246;2022-10-16T23:56:30;101688.94;;;11.09;93.43
